Time;durP1;ratioP1;P1;durP2;ratioP2;P2;SDS_P1;SDS_P2;PMS_P1;PMS_P2;Temp;Humidity;BMP_temperature;BMP_pressure;BME280_temperature;BME280_humidity;BME280_pressure;Samples;Min_cycle;Max_cycle;Signal;HPM_P1;HPM_P2
2022/04/05 00:00:03;;;;;;;6.47;5.80;;;8.10;77.20;7.90;95854.00;;;;4950550;28;20212;-85
2022/04/05 00:02:33;;;;;;;6.27;5.63;;;8.10;77.30;7.90;95842.00;;;;4950058;28;20291;-84
2022/04/05 00:05:01;;;;;;;6.53;5.80;;;8.10;77.40;7.90;95845.00;;;;4948298;28;20243;-85
2022/04/05 00:07:29;;;;;;;5.70;5.20;;;8.10;77.30;7.90;95852.00;;;;4950127;28;20212;-84
2022/04/05 00:10:00;;;;;;;5.97;5.47;;;8.10;77.40;7.90;95840.00;;;;4950361;28;20238;-84
2022/04/05 00:12:27;;;;;;;5.57;5.07;;;8.10;77.30;7.90;95827.00;;;;4949821;28;20254;-85
2022/04/05 00:14:56;;;;;;;4.83;4.43;;;8.50;77.40;7.90;95835.00;;;;4949176;28;20230;-85
2022/04/05 00:17:23;;;;;;;5.40;4.93;;;8.10;77.20;7.90;95824.00;;;;4950312;28;20196;-84
2022/04/05 00:19:55;;;;;;;6.33;5.60;;;8.10;77.30;7.90;95820.00;;;;4950231;28;20556;-85
2022/04/05 00:22:22;;;;;;;5.40;4.90;;;8.10;77.30;7.90;95817.00;;;;4948972;28;20199;-84
2022/04/05 00:24:50;;;;;;;5.27;4.77;;;8.10;77.40;7.90;95814.00;;;;4967605;23;21359;-83
2022/04/05 00:27:17;;;;;;;5.70;5.20;;;8.10;77.30;7.90;95814.00;;;;4973105;28;20187;-81
2022/04/05 00:29:44;;;;;;;5.70;5.07;;;8.10;77.30;7.90;95808.00;;;;4973014;28;20199;-81
2022/04/05 00:32:12;;;;;;;5.17;4.67;;;8.10;77.30;7.90;95806.00;;;;4976265;28;20195;-82
2022/04/05 00:34:39;;;;;;;5.57;4.50;;;8.10;77.20;7.90;95813.00;;;;4973155;28;20250;-82
2022/04/05 00:37:08;;;;;;;4.53;4.13;;;8.10;77.20;7.90;95808.00;;;;4973594;28;20229;-82
2022/04/05 00:42:04;;;;;;;4.30;3.97;;;8.10;77.20;8.00;95786.00;;;;4969428;28;20208;-88
2022/04/05 00:44:31;;;;;;;4.10;3.80;;;8.10;77.20;8.00;95791.00;;;;4970741;28;20218;-87
2022/04/05 00:47:10;;;;;;;5.00;4.60;;;8.10;76.90;8.00;95785.00;;;;4970759;28;20203;-88
2022/04/05 00:49:37;;;;;;;4.40;4.00;;;8.10;76.70;8.00;95783.00;;;;4958116;28;20223;-88
2022/04/05 00:52:05;;;;;;;4.93;4.53;;;8.20;76.80;8.00;95770.00;;;;4951535;29;20200;-88
2022/04/05 00:54:37;;;;;;;5.10;4.00;;;8.20;76.90;8.10;95777.00;;;;4951563;28;20210;-88
2022/04/05 00:57:10;;;;;;;3.93;3.63;;;8.20;77.30;8.10;95784.00;;;;4951224;29;20212;-88
2022/04/05 00:59:42;;;;;;;4.03;3.73;;;8.20;76.60;8.10;95788.00;;;;4951422;28;20304;-88
2022/04/05 01:02:13;;;;;;;4.73;4.00;;;8.20;76.30;8.10;95775.00;;;;4950704;28;20220;-88
2022/04/05 01:04:42;;;;;;;4.17;3.77;;;8.20;76.00;8.10;95769.00;;;;4965496;28;20184;-89
2022/04/05 01:07:14;;;;;;;3.73;3.43;;;8.30;76.40;8.10;95779.00;;;;4949695;28;20577;-88
2022/04/05 01:09:43;;;;;;;4.40;4.03;;;8.30;76.20;8.10;95770.00;;;;4950201;28;20226;-88
2022/04/05 01:12:12;;;;;;;4.50;3.77;;;8.30;76.10;8.20;95753.00;;;;4948770;28;20222;-88
2022/04/05 01:14:41;;;;;;;3.53;3.23;;;8.30;76.10;8.20;95759.00;;;;4949230;28;20192;-88
2022/04/05 01:17:09;;;;;;;3.37;3.07;;;8.30;76.10;8.20;95760.00;;;;4951177;28;20220;-88
2022/04/05 01:19:36;;;;;;;3.50;3.20;;;8.30;75.70;8.20;95755.00;;;;4952788;29;20223;-89
2022/04/05 01:22:04;;;;;;;5.73;3.60;;;8.40;76.00;8.20;95756.00;;;;4952537;28;20196;-89
2022/04/05 01:24:33;;;;;;;3.87;3.57;;;8.30;75.60;8.20;95761.00;;;;4953387;28;20204;-88
2022/04/05 01:27:06;;;;;;;3.70;3.40;;;8.40;75.70;8.30;95754.00;;;;4954680;28;20361;-88
2022/04/05 01:29:34;;;;;;;3.67;3.37;;;8.40;75.60;8.30;95753.00;;;;4954663;28;20234;-88
2022/04/05 01:32:05;;;;;;;3.13;2.90;;;8.40;75.50;8.30;95761.00;;;;4954523;29;20279;-88
2022/04/05 01:34:34;;;;;;;3.23;2.90;;;8.40;75.30;8.30;95750.00;;;;4954536;29;20657;-88
2022/04/05 01:37:05;;;;;;;3.53;3.23;;;8.40;75.30;8.30;95751.00;;;;4954087;28;20224;-87
2022/04/05 01:39:35;;;;;;;3.23;3.00;;;8.40;75.50;8.30;95747.00;;;;4954444;28;20220;-89
2022/04/05 01:42:06;;;;;;;3.20;2.90;;;8.50;75.40;8.30;95739.00;;;;4954267;29;20576;-89
2022/04/05 01:44:36;;;;;;;3.47;3.17;;;8.50;75.40;8.40;95737.00;;;;4954370;28;20318;-88
2022/04/05 01:47:06;;;;;;;3.40;3.10;;;8.50;75.30;8.40;95745.00;;;;4954123;28;20661;-88
2022/04/05 01:49:33;;;;;;;4.37;3.97;;;8.50;75.20;8.40;95731.00;;;;4954490;28;20322;-89
2022/04/05 01:52:00;;;;;;;3.23;2.93;;;8.50;75.20;8.40;95732.00;;;;4954163;28;20188;-88
2022/04/05 01:54:27;;;;;;;2.90;2.70;;;8.50;75.20;8.40;95734.00;;;;4954145;28;20207;-89
2022/04/05 01:56:56;;;;;;;3.40;3.10;;;8.50;75.20;8.40;95721.00;;;;4954079;28;20315;-89
2022/04/05 01:59:27;;;;;;;3.30;3.00;;;8.50;75.10;8.40;95726.00;;;;4953909;28;20227;-88
2022/04/05 02:01:55;;;;;;;3.53;3.07;;;8.60;75.00;8.40;95721.00;;;;4954108;28;20220;-88
2022/04/05 02:04:22;;;;;;;3.20;2.80;;;8.60;74.90;8.50;95719.00;;;;4954128;28;20254;-89
2022/04/05 02:06:50;;;;;;;3.20;3.00;;;8.60;74.90;8.50;95726.00;;;;4954009;28;20211;-88
2022/04/05 02:09:18;;;;;;;3.50;3.20;;;8.60;74.70;8.50;95706.00;;;;4953755;28;20224;-89
2022/04/05 02:11:47;;;;;;;3.60;3.23;;;8.60;74.90;8.50;95702.00;;;;4953734;29;20200;-89
2022/04/05 02:14:17;;;;;;;3.03;2.83;;;8.60;73.70;8.50;95694.00;;;;4953752;28;20574;-89
2022/04/05 02:16:44;;;;;;;3.90;2.80;;;8.60;74.40;8.50;95694.00;;;;4953812;28;20258;-88
2022/04/05 02:19:12;;;;;;;3.07;2.73;;;8.60;74.40;8.50;95690.00;;;;4953663;28;20248;-88
2022/04/05 02:21:39;;;;;;;3.00;2.80;;;8.60;74.50;8.50;95703.00;;;;4953758;28;20216;-88
2022/04/05 02:24:07;;;;;;;2.63;2.43;;;8.60;74.00;8.50;95693.00;;;;4953405;29;20196;-88
2022/04/05 02:26:34;;;;;;;3.90;3.50;;;8.60;73.90;8.50;95686.00;;;;4953290;28;20673;-88
2022/04/05 02:29:01;;;;;;;3.50;3.20;;;8.70;73.90;8.50;95696.00;;;;4952751;28;20216;-88
2022/04/05 02:31:29;;;;;;;3.20;2.73;;;8.70;74.50;8.50;95677.00;;;;4953567;28;20287;-89
2022/04/05 02:33:56;;;;;;;3.90;3.37;;;8.80;74.40;8.50;95669.00;;;;4950651;29;20214;-88
2022/04/05 02:36:23;;;;;;;4.07;3.73;;;8.70;73.90;8.60;95673.00;;;;4953538;29;20714;-88
2022/04/05 02:38:50;;;;;;;3.40;3.10;;;8.70;74.10;8.60;95675.00;;;;4953668;28;20219;-89
2022/04/05 02:41:17;;;;;;;3.23;2.97;;;8.70;73.70;8.60;95664.00;;;;4953384;28;20219;-89
2022/04/05 02:43:45;;;;;;;3.73;3.43;;;8.70;73.60;8.60;95655.00;;;;4953341;28;20290;-89
2022/04/05 02:46:12;;;;;;;3.87;3.10;;;8.70;73.80;8.60;95670.00;;;;4953372;28;20208;-89
2022/04/05 02:48:43;;;;;;;3.53;3.23;;;8.70;73.40;8.60;95672.00;;;;4953150;28;20216;-89
2022/04/05 02:51:12;;;;;;;4.10;3.37;;;8.70;73.90;8.60;95668.00;;;;4953214;29;20200;-88
2022/04/05 02:53:40;;;;;;;3.03;2.83;;;8.80;73.20;8.70;95681.00;;;;4952890;28;20204;-88
2022/04/05 02:56:08;;;;;;;3.67;3.37;;;8.80;73.30;8.70;95687.00;;;;4953225;28;20254;-88
2022/04/05 02:58:35;;;;;;;3.67;3.33;;;8.80;72.90;8.70;95674.00;;;;4952897;29;20212;-89
2022/04/05 03:01:03;;;;;;;3.63;3.03;;;8.80;73.10;8.70;95680.00;;;;4953182;28;20200;-88
2022/04/05 03:03:30;;;;;;;3.43;3.17;;;8.80;72.60;8.70;95669.00;;;;4958851;28;20201;-88
2022/04/05 03:05:59;;;;;;;3.73;3.30;;;8.90;72.80;8.80;95676.00;;;;4975683;28;20692;-88
2022/04/05 03:08:26;;;;;;;3.93;3.37;;;8.80;72.40;8.80;95683.00;;;;4951341;28;20216;-89
2022/04/05 03:10:53;;;;;;;3.13;2.87;;;8.90;72.50;8.80;95670.00;;;;4951968;29;20216;-88
2022/04/05 03:13:21;;;;;;;3.53;3.23;;;8.90;72.60;8.80;95652.00;;;;4952050;29;20207;-88
2022/04/05 03:15:48;;;;;;;4.23;3.70;;;8.90;72.80;8.80;95654.00;;;;4952962;28;20208;-88
2022/04/05 03:18:15;;;;;;;3.40;3.10;;;8.90;72.50;8.80;95638.00;;;;4952579;28;20201;-89
2022/04/05 03:20:42;;;;;;;3.80;3.50;;;8.90;72.50;8.80;95649.00;;;;4952851;28;20550;-89
2022/04/05 03:23:11;;;;;;;3.17;2.70;;;8.90;72.20;8.90;95642.00;;;;4952972;28;20205;-89
2022/04/05 03:25:38;;;;;;;3.90;3.43;;;9.00;72.30;8.90;95650.00;;;;4952805;28;20204;-88
2022/04/05 03:28:05;;;;;;;3.50;3.20;;;9.00;72.50;8.90;95648.00;;;;4952919;29;20206;-88
2022/04/05 03:30:32;;;;;;;3.20;3.00;;;9.00;72.40;8.90;95645.00;;;;4952757;28;20583;-88
2022/04/05 03:32:59;;;;;;;2.90;2.70;;;9.00;72.10;8.90;95632.00;;;;4952666;28;20212;-88
2022/04/05 03:35:27;;;;;;;3.43;3.13;;;8.90;72.00;8.90;95651.00;;;;4952242;29;20196;-87
2022/04/05 03:37:54;;;;;;;3.03;2.70;;;9.00;72.00;8.90;95651.00;;;;4954781;28;20224;-89
2022/04/05 03:40:22;;;;;;;3.60;3.37;;;9.00;72.30;8.90;95641.00;;;;4951173;28;20224;-87
2022/04/05 03:42:50;;;;;;;5.07;4.43;;;9.00;72.30;8.90;95637.00;;;;4952228;28;20199;-88
2022/04/05 03:45:17;;;;;;;3.70;3.40;;;9.00;71.70;8.90;95626.00;;;;4952501;28;20207;-88
2022/04/05 03:47:44;;;;;;;3.60;2.80;;;9.00;71.90;8.90;95626.00;;;;4952328;28;20238;-88
2022/04/05 03:50:11;;;;;;;2.83;2.60;;;9.00;72.00;8.90;95627.00;;;;4952504;28;20248;-87
2022/04/05 03:52:38;;;;;;;3.73;3.17;;;9.00;72.30;8.90;95631.00;;;;4952069;29;20207;-89
2022/04/05 03:55:06;;;;;;;3.50;3.00;;;9.00;72.00;8.90;95635.00;;;;4952243;28;20197;-89
2022/04/05 03:57:35;;;;;;;3.30;3.10;;;9.00;72.40;8.90;95634.00;;;;4951967;28;20216;-88
2022/04/05 04:00:02;;;;;;;3.10;2.90;;;9.00;72.30;8.80;95630.00;;;;4952044;28;20224;-88
2022/04/05 04:02:34;;;;;;;3.07;2.73;;;9.00;72.50;8.80;95625.00;;;;4958261;28;20343;-86
2022/04/05 04:05:00;;;;;;;3.37;3.03;;;9.00;72.90;8.80;95634.00;;;;4951995;28;20200;-88
2022/04/05 04:07:28;;;;;;;2.90;2.70;;;8.90;73.20;8.80;95632.00;;;;4951925;29;20196;-87
2022/04/05 04:09:55;;;;;;;3.20;3.00;;;8.90;73.20;8.80;95638.00;;;;4951753;28;20223;-88
2022/04/05 04:12:22;;;;;;;2.80;2.60;;;8.90;73.40;8.70;95640.00;;;;4951628;28;20195;-88
2022/04/05 04:14:50;;;;;;;3.67;3.27;;;8.90;72.90;8.70;95621.00;;;;4951134;28;20635;-88
2022/04/05 04:17:17;;;;;;;3.20;3.00;;;8.80;72.90;8.70;95621.00;;;;4951706;28;20232;-87
2022/04/05 04:19:44;;;;;;;3.37;3.07;;;8.80;73.40;8.70;95627.00;;;;4951802;29;20212;-89
2022/04/05 04:22:11;;;;;;;4.03;3.63;;;8.90;73.70;8.70;95632.00;;;;4952100;29;20204;-89
2022/04/05 04:24:38;;;;;;;3.17;2.87;;;8.80;73.70;8.70;95626.00;;;;4932641;29;20623;-89
2022/04/05 04:27:06;;;;;;;3.53;3.03;;;8.80;74.40;8.60;95628.00;;;;4932777;28;20219;-88
2022/04/05 04:29:33;;;;;;;3.53;3.23;;;8.80;73.20;8.60;95634.00;;;;4932559;29;20224;-88
2022/04/05 04:32:02;;;;;;;3.50;3.20;;;8.80;73.50;8.60;95633.00;;;;4939274;29;20218;-89
2022/04/05 04:34:29;;;;;;;3.20;2.90;;;8.80;73.80;8.60;95627.00;;;;4932652;29;20200;-89
2022/04/05 04:36:56;;;;;;;3.27;2.80;;;8.80;74.00;8.60;95635.00;;;;4932706;29;20220;-88
2022/04/05 04:39:23;;;;;;;3.17;2.97;;;8.80;74.10;8.60;95635.00;;;;4932486;28;20232;-88
2022/04/05 04:41:51;;;;;;;4.30;3.40;;;8.70;74.10;8.50;95638.00;;;;4932499;28;20223;-88
2022/04/05 04:44:20;;;;;;;3.50;3.20;;;8.70;74.50;8.50;95651.00;;;;4948378;28;20657;-88
2022/04/05 04:46:47;;;;;;;3.20;3.00;;;8.70;74.60;8.50;95631.00;;;;4951766;28;20212;-88
2022/04/05 04:49:16;;;;;;;3.53;3.23;;;8.70;75.10;8.50;95643.00;;;;4951492;28;20212;-88
2022/04/05 04:51:43;;;;;;;3.83;3.47;;;8.70;75.20;8.50;95651.00;;;;4951011;28;20572;-88
2022/04/05 04:54:10;;;;;;;4.27;3.60;;;8.60;75.10;8.40;95656.00;;;;4951362;28;20283;-88
2022/04/05 04:56:37;;;;;;;3.67;3.40;;;8.60;75.40;8.40;95638.00;;;;4951271;28;20733;-88
2022/04/05 04:59:04;;;;;;;4.30;3.90;;;8.60;75.50;8.40;95650.00;;;;4951425;28;20214;-88
2022/04/05 05:01:31;;;;;;;4.80;3.40;;;8.60;75.50;8.40;95658.00;;;;4951440;28;20295;-89
2022/04/05 05:03:59;;;;;;;3.77;3.47;;;8.60;75.50;8.40;95655.00;;;;4951417;28;20291;-87
2022/04/05 05:06:27;;;;;;;3.63;3.10;;;8.60;75.50;8.40;95650.00;;;;4951536;28;20208;-90
2022/04/05 05:08:54;;;;;;;3.30;3.03;;;8.60;75.70;8.50;95657.00;;;;4951311;28;20243;-89
2022/04/05 05:11:21;;;;;;;3.93;3.63;;;8.60;75.60;8.50;95659.00;;;;4950973;28;20218;-89
2022/04/05 05:13:48;;;;;;;4.10;3.80;;;8.60;76.00;8.60;95666.00;;;;4950670;29;20207;-90
2022/04/05 05:16:15;;;;;;;4.90;3.93;;;8.60;75.70;8.60;95657.00;;;;4951850;28;20203;-89
2022/04/05 05:18:42;;;;;;;3.77;3.47;;;8.60;75.70;8.60;95672.00;;;;4950881;28;20228;-89
2022/04/05 05:21:09;;;;;;;4.20;3.80;;;8.70;75.80;8.70;95658.00;;;;4951154;28;20226;-89
2022/04/05 05:23:38;;;;;;;3.77;3.47;;;8.70;75.70;8.70;95667.00;;;;4951177;28;20258;-89
2022/04/05 05:26:05;;;;;;;4.17;3.77;;;8.70;75.50;8.70;95675.00;;;;4951379;28;20214;-90
2022/04/05 05:28:32;;;;;;;5.90;4.07;;;8.70;75.80;8.80;95664.00;;;;4951357;28;20224;-89
2022/04/05 05:30:59;;;;;;;4.20;3.80;;;8.80;75.80;8.80;95661.00;;;;4950921;28;20196;-89
2022/04/05 05:33:26;;;;;;;4.10;3.80;;;8.80;75.80;8.80;95667.00;;;;4950669;28;20678;-90
2022/04/05 05:35:54;;;;;;;4.30;3.70;;;8.80;75.80;8.80;95681.00;;;;4950950;28;20559;-91
2022/04/05 05:38:21;;;;;;;4.27;3.87;;;8.80;75.50;8.80;95658.00;;;;4951001;28;20303;-88
2022/04/05 05:40:49;;;;;;;4.33;3.97;;;8.80;75.40;8.80;95671.00;;;;4951412;28;20303;-89
2022/04/05 05:43:17;;;;;;;4.87;4.23;;;8.80;75.60;8.80;95672.00;;;;4951076;28;20650;-90
2022/04/05 05:45:44;;;;;;;3.93;3.63;;;8.90;75.70;8.80;95687.00;;;;4950910;28;20287;-88
2022/04/05 05:48:11;;;;;;;4.60;4.20;;;8.90;75.50;8.80;95675.00;;;;4950859;28;20197;-90
2022/04/05 05:50:38;;;;;;;4.80;3.93;;;8.90;75.90;8.80;95685.00;;;;4951121;28;20570;-90
2022/04/05 05:53:06;;;;;;;4.70;4.10;;;8.90;75.80;8.80;95690.00;;;;4950715;28;20200;-90
2022/04/05 05:55:35;;;;;;;4.27;3.87;;;8.90;76.00;8.80;95696.00;;;;4950703;28;20654;-90
2022/04/05 05:58:04;;;;;;;4.50;4.10;;;8.90;75.70;8.80;95700.00;;;;4951006;28;20708;-90
2022/04/05 06:00:31;;;;;;;4.63;4.23;;;8.90;75.50;8.80;95699.00;;;;4964961;28;20603;-90
2022/04/05 06:03:01;;;;;;;4.17;3.87;;;8.90;75.60;8.80;95688.00;;;;4951575;29;20279;-90
2022/04/05 06:05:29;;;;;;;6.17;4.67;;;8.90;75.70;8.80;95698.00;;;;4955119;28;20200;-89
2022/04/05 06:07:57;;;;;;;4.77;4.37;;;8.90;75.80;8.80;95699.00;;;;4954986;28;20701;-91
2022/04/05 06:10:25;;;;;;;4.83;4.23;;;8.90;76.00;8.80;95717.00;;;;4954593;28;20705;-89
2022/04/05 06:12:55;;;;;;;4.70;4.30;;;8.90;76.00;8.80;95704.00;;;;4954508;28;20196;-90
2022/04/05 06:15:25;;;;;;;4.37;3.97;;;8.90;76.10;8.80;95711.00;;;;4936109;29;20685;-90
2022/04/05 06:17:53;;;;;;;4.13;3.83;;;8.90;75.90;8.80;95717.00;;;;4954213;28;20251;-91
2022/04/05 06:20:22;;;;;;;4.73;4.23;;;8.80;76.30;8.80;95718.00;;;;4954172;28;20325;-90
2022/04/05 06:22:52;;;;;;;5.27;4.00;;;8.80;76.30;8.80;95723.00;;;;4936170;28;20219;-89
2022/04/05 06:25:22;;;;;;;5.00;4.50;;;8.80;76.50;8.80;95709.00;;;;4953211;28;20291;-89
2022/04/05 06:27:50;;;;;;;8.33;4.50;;;8.80;76.60;8.80;95728.00;;;;4954102;28;20574;-89
2022/04/05 06:30:18;;;;;;;5.33;4.67;;;8.80;76.80;8.70;95732.00;;;;4953569;28;20254;-90
2022/04/05 06:32:47;;;;;;;4.47;4.07;;;8.80;76.70;8.80;95721.00;;;;4952542;28;20582;-91
2022/04/05 06:35:16;;;;;;;4.20;3.90;;;8.80;77.00;8.80;95733.00;;;;4952847;28;20196;-90
2022/04/05 06:37:45;;;;;;;4.93;4.53;;;8.80;77.00;8.80;95723.00;;;;4957424;28;20232;-89
2022/04/05 06:40:16;;;;;;;5.10;4.60;;;8.80;77.00;8.80;95726.00;;;;4980685;23;20239;-84
2022/04/05 06:42:44;;;;;;;4.70;4.30;;;8.80;77.10;8.70;95715.00;;;;4998708;28;20200;-84
2022/04/05 06:45:13;;;;;;;4.97;4.13;;;8.80;77.40;8.70;95721.00;;;;4972151;28;20195;-84
2022/04/05 06:47:41;;;;;;;4.20;3.90;;;8.80;77.50;8.80;95732.00;;;;4973151;28;20467;-82
2022/04/05 06:50:14;;;;;;;6.27;5.33;;;8.80;77.50;8.80;95733.00;;;;4972124;28;20219;-82
2022/04/05 06:52:42;;;;;;;4.77;4.37;;;8.80;77.60;8.80;95720.00;;;;4954517;28;20278;-82
2022/04/05 06:55:11;;;;;;;5.57;5.03;;;8.80;77.40;8.80;95721.00;;;;4953089;28;20197;-83
2022/04/05 06:57:39;;;;;;;5.13;4.50;;;8.80;77.40;8.70;95733.00;;;;4952918;28;20303;-82
2022/04/05 07:00:09;;;;;;;5.40;4.90;;;8.80;77.60;8.80;95725.00;;;;4953168;28;20224;-82
2022/04/05 07:02:37;;;;;;;4.77;4.33;;;8.80;77.70;8.80;95734.00;;;;4953490;28;20223;-83
2022/04/05 07:05:06;;;;;;;5.20;4.67;;;8.80;77.90;8.80;95727.00;;;;4952846;28;20536;-82
2022/04/05 07:07:34;;;;;;;4.83;4.50;;;8.80;77.90;8.80;95730.00;;;;4953042;28;20196;-84
2022/04/05 07:10:02;;;;;;;5.30;4.80;;;8.90;78.00;8.90;95725.00;;;;4953214;28;20220;-84
2022/04/05 07:12:29;;;;;;;4.87;4.47;;;8.90;78.10;8.90;95740.00;;;;4983186;28;20200;-84
2022/04/05 07:14:55;;;;;;;5.67;5.07;;;8.90;78.10;8.90;95725.00;;;;4952623;28;20196;-82
2022/04/05 07:17:22;;;;;;;5.57;4.63;;;8.90;77.80;8.90;95725.00;;;;4952715;28;20192;-82
2022/04/05 07:19:49;;;;;;;5.13;4.67;;;8.90;77.90;8.90;95727.00;;;;4952953;29;20200;-82
2022/04/05 07:22:16;;;;;;;5.30;4.80;;;9.00;77.80;8.90;95734.00;;;;4951858;29;20199;-82
2022/04/05 07:24:45;;;;;;;5.40;4.90;;;9.00;77.90;9.00;95729.00;;;;4952325;28;20219;-82
2022/04/05 07:27:12;;;;;;;6.13;5.03;;;9.00;78.80;9.00;95725.00;;;;4951272;28;20731;-85
2022/04/05 07:29:40;;;;;;;5.50;5.00;;;9.00;78.20;9.00;95716.00;;;;4952499;28;20203;-84
2022/04/05 07:32:08;;;;;;;5.30;4.80;;;9.00;78.20;9.00;95724.00;;;;4951765;28;20204;-87
2022/04/05 07:34:35;;;;;;;5.30;4.90;;;9.00;78.20;9.00;95735.00;;;;4951642;29;20196;-87
2022/04/05 07:37:02;;;;;;;5.87;5.10;;;9.10;78.10;9.00;95733.00;;;;4951832;28;20215;-83
2022/04/05 07:39:29;;;;;;;4.67;4.27;;;9.10;78.00;9.00;95733.00;;;;4951906;28;20592;-84
2022/04/05 07:41:58;;;;;;;5.40;4.90;;;9.10;77.80;9.10;95731.00;;;;4951347;28;20236;-83
2022/04/05 07:44:25;;;;;;;4.67;4.27;;;9.10;77.60;9.10;95735.00;;;;4951830;28;20196;-83
2022/04/05 07:46:53;;;;;;;5.33;4.90;;;9.10;77.80;9.10;95720.00;;;;4952229;29;20287;-85
2022/04/05 07:49:19;;;;;;;5.43;4.93;;;9.10;78.10;9.20;95718.00;;;;4951936;29;20692;-84
2022/04/05 07:51:47;;;;;;;5.07;4.63;;;9.20;78.20;9.20;95728.00;;;;4952201;28;20247;-83
2022/04/05 07:54:14;;;;;;;5.20;4.80;;;9.20;78.10;9.30;95733.00;;;;4936737;28;20558;-84
2022/04/05 07:56:41;;;;;;;4.33;4.00;;;9.20;78.40;9.40;95739.00;;;;4933094;28;20197;-83
2022/04/05 07:59:09;;;;;;;5.30;4.80;;;9.30;78.20;9.40;95746.00;;;;4932929;29;20235;-82
2022/04/05 08:01:36;;;;;;;5.67;5.17;;;9.30;78.40;9.50;95738.00;;;;4939253;29;20726;-84
2022/04/05 08:04:04;;;;;;;4.97;4.47;;;9.40;78.20;9.50;95732.00;;;;4951948;28;20291;-85
2022/04/05 08:06:31;;;;;;;5.97;5.40;;;9.40;78.20;9.60;95739.00;;;;4952040;29;20208;-84
2022/04/05 08:08:59;;;;;;;5.70;5.00;;;9.50;78.30;9.60;95728.00;;;;4951912;29;20212;-83
2022/04/05 08:11:27;;;;;;;4.80;4.40;;;9.50;78.40;9.70;95733.00;;;;4953829;28;20243;-83
2022/04/05 08:13:55;;;;;;;4.63;4.23;;;9.50;78.10;9.70;95740.00;;;;4952249;28;20203;-82
2022/04/05 08:16:23;;;;;;;5.30;4.80;;;9.60;78.40;9.80;95743.00;;;;4952298;28;20208;-82
2022/04/05 08:18:50;;;;;;;5.00;4.33;;;9.70;79.10;9.90;95746.00;;;;4941470;28;20216;-83
2022/04/05 08:21:20;;;;;;;4.87;4.37;;;9.70;78.50;10.00;95746.00;;;;4944776;28;20228;-83
2022/04/05 08:23:50;;;;;;;4.60;4.20;;;9.80;78.20;10.00;95752.00;;;;4944067;28;20247;-83
2022/04/05 08:26:17;;;;;;;4.80;4.27;;;9.80;78.20;10.10;95760.00;;;;4943003;28;20716;-83
2022/04/05 08:28:44;;;;;;;4.53;4.13;;;9.90;78.40;10.20;95755.00;;;;4951320;29;20196;-83
2022/04/05 08:31:11;;;;;;;4.77;4.00;;;10.00;78.20;10.30;95769.00;;;;4950911;28;20286;-83
2022/04/05 08:33:40;;;;;;;4.30;3.90;;;10.00;77.90;10.30;95763.00;;;;4951178;28;20211;-83
2022/04/05 08:36:07;;;;;;;4.17;3.87;;;10.10;77.80;10.30;95761.00;;;;4957800;28;20203;-83
2022/04/05 08:38:35;;;;;;;5.20;4.40;;;10.20;77.60;10.40;95764.00;;;;4961397;28;20338;-83
2022/04/05 08:41:05;;;;;;;4.10;3.70;;;10.20;77.50;10.40;95755.00;;;;4957998;28;20231;-82
2022/04/05 08:43:32;;;;;;;4.50;4.07;;;10.20;77.30;10.40;95767.00;;;;4954928;28;20774;-83
2022/04/05 08:46:01;;;;;;;4.40;4.00;;;10.30;77.40;10.40;95764.00;;;;4953341;28;20187;-82
2022/04/05 08:48:30;;;;;;;4.40;3.77;;;10.30;77.20;10.50;95771.00;;;;4952467;28;20204;-82
2022/04/05 08:50:59;;;;;;;4.30;3.97;;;10.30;77.00;10.50;95796.00;;;;4952227;29;20228;-83
2022/04/05 08:53:28;;;;;;;3.83;3.53;;;10.40;76.60;10.50;95771.00;;;;4944055;28;20678;-83
2022/04/05 08:55:55;;;;;;;3.73;3.43;;;10.30;75.80;10.50;95774.00;;;;4990175;28;20189;-83
2022/04/05 08:58:22;;;;;;;4.43;4.03;;;10.40;75.70;10.50;95774.00;;;;5032073;28;20229;-82
2022/04/05 09:00:49;;;;;;;3.90;3.53;;;10.40;76.60;10.60;95775.00;;;;4951943;28;20311;-82
2022/04/05 09:03:16;;;;;;;4.00;3.70;;;10.40;76.60;10.70;95783.00;;;;4951516;28;20249;-83
2022/04/05 09:05:46;;;;;;;4.47;4.07;;;10.50;76.40;10.80;95765.00;;;;4950809;28;20201;-82
2022/04/05 09:08:23;;;;;;;4.30;3.90;;;10.50;76.80;10.90;95776.00;;;;4951413;28;20270;-83
2022/04/05 09:10:53;;;;;;;4.00;3.70;;;10.60;76.40;10.90;95778.00;;;;4951343;28;20552;-83
2022/04/05 09:13:26;;;;;;;4.57;4.10;;;10.70;76.40;11.00;95777.00;;;;4951250;28;20820;-82
2022/04/05 09:15:57;;;;;;;4.03;3.73;;;10.80;76.40;11.10;95773.00;;;;4951210;28;20204;-82
2022/04/05 09:18:34;;;;;;;4.07;3.67;;;10.80;76.60;11.20;95778.00;;;;4955138;28;20219;-82
2022/04/05 09:21:03;;;;;;;4.23;3.60;;;10.90;75.80;11.30;95785.00;;;;4952181;28;20617;-82
2022/04/05 09:23:34;;;;;;;4.20;3.83;;;11.00;76.50;11.40;95791.00;;;;4942135;28;20201;-83
2022/04/05 09:26:04;;;;;;;3.93;3.63;;;11.10;76.20;11.50;95785.00;;;;4945824;28;20197;-82
2022/04/05 09:28:35;;;;;;;4.10;3.80;;;11.10;76.00;11.60;95786.00;;;;4952723;28;20668;-82
2022/04/05 09:31:05;;;;;;;4.63;4.23;;;11.20;76.00;11.60;95795.00;;;;4956745;28;20227;-82
2022/04/05 09:33:34;;;;;;;4.30;4.00;;;11.30;75.40;11.70;95791.00;;;;4963872;28;20195;-82
2022/04/05 09:36:15;;;;;;;3.97;3.67;;;11.40;75.00;11.70;95802.00;;;;4965774;28;20200;-82
2022/04/05 09:38:45;;;;;;;4.40;4.00;;;11.50;74.40;11.80;95798.00;;;;4960448;28;20753;-82
2022/04/05 09:41:17;;;;;;;4.10;3.70;;;11.50;74.00;11.90;95787.00;;;;4959710;28;20232;-82
2022/04/05 09:43:54;;;;;;;4.00;3.50;;;11.60;74.40;12.00;95811.00;;;;4969399;28;20210;-82
2022/04/05 09:46:22;;;;;;;3.73;3.43;;;11.70;75.10;12.10;95794.00;;;;4965485;28;20191;-82
2022/04/05 09:49:07;;;;;;;4.33;3.87;;;11.80;75.00;12.20;95802.00;;;;4958380;28;20752;-82
2022/04/05 09:51:44;;;;;;;4.23;3.87;;;11.90;74.70;12.30;95788.00;;;;4956108;28;20233;-82
2022/04/05 09:54:27;;;;;;;4.57;4.07;;;12.00;74.70;12.50;95793.00;;;;4968552;28;20207;-83
2022/04/05 09:57:03;;;;;;;5.07;4.57;;;12.10;73.80;12.50;95797.00;;;;4954961;28;20196;-83
2022/04/05 09:59:39;;;;;;;4.40;4.00;;;12.10;73.90;12.60;95802.00;;;;4943259;28;20218;-83
2022/04/05 10:02:13;;;;;;;4.27;3.80;;;12.20;73.50;12.60;95798.00;;;;4952934;28;20195;-83
2022/04/05 10:05:09;;;;;;;4.20;3.80;;;12.30;73.60;12.70;95790.00;;;;4954340;29;20210;-83
2022/04/05 10:07:37;;;;;;;4.17;3.87;;;12.30;72.70;12.80;95794.00;;;;4967339;28;20204;-83
2022/04/05 10:10:08;;;;;;;4.70;4.30;;;12.40;73.50;12.90;95793.00;;;;4963863;28;20219;-83
2022/04/05 10:12:36;;;;;;;4.80;4.33;;;12.40;73.40;12.90;95814.00;;;;4967304;28;20210;-83
2022/04/05 10:15:03;;;;;;;4.20;3.90;;;12.50;73.20;12.90;95800.00;;;;4955496;28;20658;-83
2022/04/05 10:17:31;;;;;;;4.20;3.80;;;12.50;73.20;12.90;95800.00;;;;4982571;28;20199;-83
2022/04/05 10:19:58;;;;;;;4.57;4.17;;;12.60;73.60;13.00;95801.00;;;;4951114;28;20251;-83
2022/04/05 10:22:27;;;;;;;4.27;3.87;;;12.60;73.30;13.00;95793.00;;;;4953922;28;20203;-83
2022/04/05 10:24:56;;;;;;;3.63;3.43;;;12.60;72.80;13.00;95791.00;;;;4953292;28;20200;-83
2022/04/05 10:27:26;;;;;;;4.40;4.10;;;12.60;72.60;13.10;95794.00;;;;4953226;28;20249;-82
2022/04/05 10:30:05;;;;;;;3.87;3.57;;;12.70;72.10;13.10;95810.00;;;;4953286;28;20597;-83
2022/04/05 10:32:43;;;;;;;4.13;3.83;;;12.70;72.20;13.10;95799.00;;;;4953514;28;20203;-83
2022/04/05 10:35:12;;;;;;;3.73;3.43;;;12.80;72.60;13.20;95799.00;;;;4953134;29;20243;-83
2022/04/05 10:37:41;;;;;;;3.90;3.50;;;12.80;72.70;13.20;95806.00;;;;4953847;28;20203;-83
2022/04/05 10:40:15;;;;;;;3.50;3.20;;;12.80;72.90;13.30;95784.00;;;;4950573;28;20684;-83
2022/04/05 10:42:47;;;;;;;3.43;3.23;;;12.90;72.60;13.40;95797.00;;;;4954536;29;20204;-82
2022/04/05 10:45:17;;;;;;;3.47;3.13;;;13.00;71.80;13.50;95794.00;;;;4954326;28;20204;-82
2022/04/05 10:48:09;;;;;;;3.47;3.17;;;13.10;71.80;13.60;95799.00;;;;4954374;28;20204;-83
2022/04/05 10:50:36;;;;;;;3.67;2.90;;;13.20;71.30;13.70;95794.00;;;;4953816;28;20220;-83
2022/04/05 10:53:19;;;;;;;3.57;3.27;;;13.30;72.30;13.80;95795.00;;;;4949444;28;20204;-82
2022/04/05 10:56:14;;;;;;;3.23;3.00;;;13.30;70.80;13.90;95790.00;;;;4943893;28;20196;-83
2022/04/05 10:59:21;;;;;;;3.10;2.90;;;13.40;71.30;14.00;95821.00;;;;4953477;28;20255;-82
2022/04/05 11:01:48;;;;;;;2.90;2.70;;;13.50;70.80;14.10;95802.00;;;;4953751;28;20215;-83
2022/04/05 11:04:34;;;;;;;2.60;2.40;;;13.60;71.70;14.10;95810.00;;;;4953538;28;20211;-83
2022/04/05 11:07:12;;;;;;;3.30;3.03;;;13.70;69.70;14.20;95797.00;;;;4951935;28;20197;-83
2022/04/05 11:09:50;;;;;;;3.17;2.87;;;13.70;70.20;14.30;95804.00;;;;4953044;28;20207;-83
2022/04/05 11:12:23;;;;;;;2.67;2.47;;;13.80;70.50;14.30;95808.00;;;;4938644;28;20227;-83
2022/04/05 11:14:58;;;;;;;2.80;2.60;;;13.90;70.50;14.40;95808.00;;;;4954349;28;20222;-83